Time;durP1;ratioP1;P1;durP2;ratioP2;P2;SDS_P1;SDS_P2;PMS_P1;PMS_P2;Temp;Humidity;BMP_temperature;BMP_pressure;BME280_temperature;BME280_humidity;BME280_pressure;Samples;Min_cycle;Max_cycle;Signal;HPM_P1;HPM_P2
2022/05/20 00:00:39;;;;;;;10.40;3.45;;;23.00;99.90;;;;;;5037909;28;20496;-86
2022/05/20 00:03:05;;;;;;;9.13;3.70;;;22.90;99.90;;;;;;5046602;28;20064;-84
2022/05/20 00:05:31;;;;;;;8.50;3.85;;;22.80;99.90;;;;;;5036600;28;20055;-85
2022/05/20 00:07:57;;;;;;;7.97;3.63;;;22.70;99.90;;;;;;5036039;28;20030;-85
2022/05/20 00:10:23;;;;;;;10.40;3.80;;;22.70;99.90;;;;;;5054175;28;20025;-85
2022/05/20 00:12:50;;;;;;;4.88;3.40;;;22.70;99.90;;;;;;5052452;28;20025;-85
2022/05/20 00:15:18;;;;;;;8.18;3.45;;;22.60;99.90;;;;;;5045944;28;20021;-85
2022/05/20 00:17:44;;;;;;;10.13;3.75;;;22.70;99.90;;;;;;5047771;28;20025;-85
2022/05/20 00:20:11;;;;;;;10.23;4.03;;;22.50;99.90;;;;;;5052282;28;20563;-85
2022/05/20 00:22:38;;;;;;;9.05;3.58;;;22.40;99.90;;;;;;5038637;28;20037;-85
2022/05/20 00:27:49;;;;;;;7.60;3.58;;;22.30;99.90;;;;;;5039357;28;20445;-85
2022/05/20 00:30:15;;;;;;;9.70;3.53;;;22.40;99.90;;;;;;5039647;28;20021;-85
2022/05/20 00:32:40;;;;;;;7.03;3.42;;;22.20;99.90;;;;;;5057529;28;20037;-85
2022/05/20 00:35:07;;;;;;;6.30;3.60;;;22.20;99.90;;;;;;5034520;28;20042;-85
2022/05/20 00:37:33;;;;;;;5.53;3.47;;;22.10;99.90;;;;;;5038133;28;20025;-85
2022/05/20 00:39:59;;;;;;;8.02;3.17;;;22.20;99.90;;;;;;5049387;28;20028;-85
2022/05/20 00:42:24;;;;;;;7.63;3.70;;;22.20;99.90;;;;;;5050378;28;20044;-85
2022/05/20 00:44:50;;;;;;;7.20;3.55;;;22.20;99.90;;;;;;5038612;28;20029;-85
2022/05/20 00:47:16;;;;;;;9.75;3.65;;;22.20;99.90;;;;;;5051698;28;20032;-85
2022/05/20 00:49:46;;;;;;;7.30;3.85;;;22.10;99.90;;;;;;5037547;28;20021;-85
2022/05/20 00:52:15;;;;;;;7.95;3.67;;;22.20;99.90;;;;;;5047579;28;20040;-85
2022/05/20 00:54:45;;;;;;;7.80;3.40;;;22.30;99.90;;;;;;5045777;28;20041;-85
2022/05/20 00:57:33;;;;;;;7.13;3.63;;;22.30;99.90;;;;;;5047777;28;20037;-85
2022/05/20 01:00:09;;;;;;;7.72;3.50;;;22.30;99.90;;;;;;5053800;28;20033;-85
2022/05/20 01:02:36;;;;;;;9.73;3.40;;;22.20;99.90;;;;;;5080340;28;20052;-85
2022/05/20 01:05:05;;;;;;;7.03;3.22;;;22.30;99.90;;;;;;5050085;28;20131;-85
2022/05/20 01:07:35;;;;;;;7.68;3.33;;;22.30;99.90;;;;;;5049906;28;20071;-85
2022/05/20 01:10:01;;;;;;;7.40;3.42;;;22.30;99.90;;;;;;5041569;28;20034;-85
2022/05/20 01:12:28;;;;;;;11.10;3.50;;;22.30;99.90;;;;;;5043926;28;20039;-85
2022/05/20 01:14:54;;;;;;;9.95;3.55;;;22.30;99.90;;;;;;5048122;28;20025;-84
2022/05/20 01:17:21;;;;;;;4.93;3.50;;;22.10;99.90;;;;;;5034886;28;20034;-85
2022/05/20 01:19:50;;;;;;;5.85;3.45;;;22.20;99.90;;;;;;5067106;28;20024;-85
2022/05/20 01:22:38;;;;;;;6.32;3.67;;;22.00;99.90;;;;;;5047494;28;20051;-85
2022/05/20 01:25:05;;;;;;;9.32;3.60;;;22.00;99.90;;;;;;5035562;28;20028;-86
2022/05/20 01:27:31;;;;;;;12.60;3.55;;;21.90;99.90;;;;;;5050742;28;20056;-86
2022/05/20 01:29:57;;;;;;;6.22;2.97;;;21.90;99.90;;;;;;5054620;28;20059;-86
2022/05/20 01:32:23;;;;;;;6.45;3.55;;;22.00;99.90;;;;;;5049165;28;20705;-85
2022/05/20 01:34:48;;;;;;;5.53;3.50;;;22.00;99.90;;;;;;5048795;28;20063;-85
2022/05/20 01:37:14;;;;;;;6.82;3.10;;;22.00;99.90;;;;;;5042027;28;20029;-85
2022/05/20 01:39:42;;;;;;;5.47;3.00;;;22.00;99.90;;;;;;5049643;28;20032;-85
2022/05/20 01:42:26;;;;;;;5.18;3.10;;;22.00;99.90;;;;;;5047343;28;20080;-85
2022/05/20 01:45:01;;;;;;;7.10;3.40;;;22.10;99.90;;;;;;5036431;28;20402;-84
2022/05/20 01:47:49;;;;;;;4.68;2.80;;;22.00;99.90;;;;;;5048138;28;20026;-85
2022/05/20 01:50:28;;;;;;;5.30;3.13;;;22.00;99.90;;;;;;5033919;28;20071;-85
2022/05/20 01:52:58;;;;;;;6.07;3.20;;;21.90;99.90;;;;;;5034782;28;20028;-86
2022/05/20 01:55:48;;;;;;;5.78;3.15;;;21.90;99.90;;;;;;5040048;28;20029;-84
2022/05/20 01:58:46;;;;;;;7.25;2.90;;;22.00;99.90;;;;;;5037539;28;20072;-85
2022/05/20 02:01:26;;;;;;;5.28;2.95;;;21.80;99.90;;;;;;5029094;28;20552;-85
2022/05/20 02:04:00;;;;;;;8.95;3.20;;;21.90;99.90;;;;;;5027813;28;20128;-85
2022/05/20 02:06:43;;;;;;;6.15;3.08;;;21.80;99.90;;;;;;5029158;28;20037;-84
2022/05/20 02:09:15;;;;;;;8.98;3.63;;;21.80;99.90;;;;;;5028610;28;20033;-85
2022/05/20 02:11:45;;;;;;;6.15;3.22;;;21.80;99.90;;;;;;5012548;28;20053;-85
2022/05/20 02:14:25;;;;;;;6.10;3.50;;;21.70;99.90;;;;;;5027038;28;20401;-85
2022/05/20 02:17:17;;;;;;;5.35;3.13;;;21.70;99.90;;;;;;5029195;28;20037;-85
2022/05/20 02:19:56;;;;;;;7.10;3.00;;;21.60;99.90;;;;;;5027714;28;20036;-85
2022/05/20 02:22:26;;;;;;;4.32;3.22;;;21.60;99.90;;;;;;5029462;28;20037;-85
2022/05/20 02:24:54;;;;;;;6.68;3.28;;;21.60;99.90;;;;;;5027204;28;20033;-85
2022/05/20 02:27:24;;;;;;;4.43;2.90;;;21.70;99.90;;;;;;5028991;28;20109;-85
2022/05/20 02:30:03;;;;;;;5.78;3.22;;;21.70;99.90;;;;;;5028916;28;20033;-85
2022/05/20 02:32:59;;;;;;;7.07;3.50;;;21.70;99.90;;;;;;5029295;28;20041;-85
2022/05/20 02:35:24;;;;;;;9.02;3.95;;;21.60;99.90;;;;;;5028683;28;20443;-84
2022/05/20 02:37:50;;;;;;;13.63;4.35;;;21.50;99.90;;;;;;5029390;28;20175;-85
2022/05/20 02:40:18;;;;;;;8.20;3.30;;;21.40;99.90;;;;;;5044696;28;20051;-86
2022/05/20 02:42:44;;;;;;;6.40;3.25;;;21.30;99.90;;;;;;5044874;28;20523;-85
2022/05/20 02:45:10;;;;;;;5.25;3.22;;;21.40;99.90;;;;;;5041367;28;20060;-85
2022/05/20 02:47:37;;;;;;;5.40;3.03;;;21.30;99.90;;;;;;5048674;28;20112;-86
2022/05/20 02:50:07;;;;;;;4.00;2.63;;;21.30;99.90;;;;;;5053531;28;20971;-84
2022/05/20 02:52:33;;;;;;;8.13;3.22;;;21.30;99.90;;;;;;5042315;28;20052;-85
2022/05/20 02:54:59;;;;;;;5.47;3.55;;;21.30;99.90;;;;;;5040305;28;20029;-85
2022/05/20 02:57:25;;;;;;;7.07;3.17;;;21.30;99.90;;;;;;5036620;28;20497;-86
2022/05/20 03:05:26;;;;;;;5.82;3.10;;;21.10;99.90;;;;;;5048910;28;20059;-85
2022/05/20 03:07:52;;;;;;;6.93;3.20;;;21.00;99.90;;;;;;5048729;28;20076;-85
2022/05/20 03:10:18;;;;;;;7.72;3.42;;;21.00;99.90;;;;;;5036335;28;20086;-85
2022/05/20 03:12:43;;;;;;;7.85;3.50;;;21.00;99.90;;;;;;5043081;28;20032;-85
2022/05/20 03:15:12;;;;;;;7.25;3.45;;;21.00;99.90;;;;;;5044953;28;20040;-85
2022/05/20 03:17:39;;;;;;;6.47;3.00;;;21.00;99.90;;;;;;5036235;28;20021;-85
2022/05/20 03:20:08;;;;;;;8.80;3.53;;;21.00;99.90;;;;;;5049594;28;20123;-85
2022/05/20 03:22:34;;;;;;;6.80;3.28;;;21.00;99.90;;;;;;5050430;28;20421;-85
2022/05/20 03:25:00;;;;;;;5.63;3.35;;;21.00;99.90;;;;;;5053179;28;20060;-84
2022/05/20 03:27:26;;;;;;;11.00;3.30;;;21.00;99.90;;;;;;5024184;28;20138;-85
2022/05/20 03:29:52;;;;;;;6.03;3.53;;;21.00;99.90;;;;;;5040477;28;20024;-85
2022/05/20 03:32:17;;;;;;;6.53;3.47;;;21.00;99.90;;;;;;5037090;28;20036;-84
2022/05/20 03:34:43;;;;;;;5.20;3.47;;;21.00;99.90;;;;;;5036393;28;20526;-85
2022/05/20 03:37:09;;;;;;;4.28;3.58;;;21.00;99.90;;;;;;5035534;28;20108;-85
2022/05/20 03:39:35;;;;;;;10.68;3.72;;;20.90;99.90;;;;;;5049316;28;20075;-85
2022/05/20 03:42:02;;;;;;;7.43;3.38;;;20.90;99.90;;;;;;5049019;28;20033;-85
2022/05/20 03:44:28;;;;;;;5.10;3.22;;;20.90;99.90;;;;;;5037221;28;20017;-84
2022/05/20 03:46:55;;;;;;;6.93;3.53;;;20.80;99.90;;;;;;5037148;28;20456;-85
2022/05/20 03:49:24;;;;;;;7.18;3.13;;;20.80;99.90;;;;;;5039625;28;20029;-85
2022/05/20 03:51:51;;;;;;;6.25;3.50;;;20.80;99.90;;;;;;5046938;28;20035;-85
2022/05/20 03:54:19;;;;;;;12.48;3.30;;;20.70;99.90;;;;;;5053496;28;20131;-85
2022/05/20 03:56:45;;;;;;;6.47;3.58;;;20.70;99.90;;;;;;5039875;28;20029;-85
2022/05/20 03:59:11;;;;;;;5.78;3.03;;;20.70;99.90;;;;;;5034818;28;20033;-85
2022/05/20 04:01:57;;;;;;;5.30;3.40;;;20.80;99.90;;;;;;5053827;28;20040;-83
2022/05/20 04:04:55;;;;;;;9.88;4.03;;;20.80;99.90;;;;;;5042520;28;20424;-85
2022/05/20 04:07:23;;;;;;;6.80;3.50;;;20.80;99.90;;;;;;5046941;28;20060;-85
2022/05/20 04:09:49;;;;;;;7.40;3.25;;;20.80;99.90;;;;;;5047839;28;20021;-85
2022/05/20 04:12:33;;;;;;;4.85;3.25;;;20.80;99.90;;;;;;5046064;28;20133;-85
2022/05/20 04:15:00;;;;;;;7.07;3.40;;;20.70;99.90;;;;;;5046332;28;20117;-85
2022/05/20 04:17:26;;;;;;;9.43;3.40;;;20.80;99.90;;;;;;5052371;28;20021;-86
2022/05/20 04:19:52;;;;;;;9.68;3.30;;;20.70;99.90;;;;;;5036814;28;20040;-84
2022/05/20 04:22:25;;;;;;;9.57;3.30;;;20.90;99.90;;;;;;5040593;28;20099;-85
2022/05/20 04:24:51;;;;;;;4.35;2.97;;;21.00;99.90;;;;;;5045310;28;20029;-85
2022/05/20 04:27:16;;;;;;;10.43;3.85;;;20.90;99.90;;;;;;5046070;28;20371;-85
2022/05/20 04:29:42;;;;;;;6.88;3.38;;;20.90;99.90;;;;;;5038726;28;20029;-85
2022/05/20 04:32:09;;;;;;;5.65;3.22;;;21.00;99.90;;;;;;5056331;28;20040;-85
2022/05/20 04:34:34;;;;;;;5.22;3.50;;;21.00;99.90;;;;;;5049363;28;20045;-86
2022/05/20 04:37:00;;;;;;;5.63;3.67;;;20.90;99.90;;;;;;5040724;28;20042;-85
2022/05/20 04:39:25;;;;;;;8.57;3.45;;;20.90;99.90;;;;;;5038960;28;20445;-87
2022/05/20 04:47:26;;;;;;;6.53;3.35;;;21.00;99.90;;;;;;5035935;28;20031;-85
2022/05/20 04:49:53;;;;;;;7.70;3.65;;;21.00;99.90;;;;;;5067902;28;20405;-85
2022/05/20 04:52:19;;;;;;;4.85;3.10;;;21.10;99.90;;;;;;5036788;28;20498;-85
2022/05/20 04:54:51;;;;;;;6.43;3.33;;;21.00;99.90;;;;;;5042478;28;20553;-85
2022/05/20 04:57:47;;;;;;;6.32;3.22;;;21.10;99.90;;;;;;5044962;28;20123;-85
2022/05/20 05:00:21;;;;;;;6.82;4.32;;;21.20;99.90;;;;;;5028266;28;20029;-85
2022/05/20 05:02:47;;;;;;;8.55;3.72;;;21.10;99.90;;;;;;5030302;28;20128;-83
2022/05/20 05:05:17;;;;;;;4.43;3.25;;;21.10;99.90;;;;;;5030614;28;20033;-84
2022/05/20 05:07:47;;;;;;;7.97;3.20;;;21.10;99.90;;;;;;5027023;28;20108;-84
2022/05/20 05:10:15;;;;;;;5.35;3.40;;;21.30;99.90;;;;;;5016900;28;20069;-84
2022/05/20 05:12:42;;;;;;;9.63;3.97;;;21.40;99.90;;;;;;5026733;28;20036;-85
2022/05/20 05:15:08;;;;;;;7.60;3.28;;;21.60;99.90;;;;;;5030372;28;20104;-85
2022/05/20 05:20:21;;;;;;;4.88;3.15;;;21.50;99.90;;;;;;5026016;28;20580;-83
2022/05/20 05:22:51;;;;;;;7.25;3.30;;;21.60;99.90;;;;;;5030554;28;20029;-83
2022/05/20 05:25:18;;;;;;;7.53;3.28;;;21.60;99.90;;;;;;5031017;28;20120;-83
2022/05/20 05:27:44;;;;;;;6.43;3.28;;;21.50;99.90;;;;;;5029069;28;20439;-83
2022/05/20 05:30:14;;;;;;;6.43;3.40;;;21.50;99.90;;;;;;5027202;28;20126;-83
2022/05/20 05:32:41;;;;;;;6.50;3.42;;;21.50;99.90;;;;;;5024102;28;20449;-83
2022/05/20 05:35:09;;;;;;;7.95;3.22;;;21.60;99.90;;;;;;5029966;28;20057;-83
2022/05/20 05:37:37;;;;;;;11.65;3.70;;;21.60;99.90;;;;;;5035381;28;20042;-83
2022/05/20 05:40:04;;;;;;;7.38;3.30;;;21.60;99.90;;;;;;5045340;28;20037;-83
2022/05/20 05:42:30;;;;;;;6.00;3.10;;;21.70;99.90;;;;;;5045718;28;20067;-83
2022/05/20 05:44:59;;;;;;;8.38;3.38;;;21.70;99.90;;;;;;5045793;28;20021;-83
2022/05/20 05:47:25;;;;;;;5.30;3.08;;;21.80;99.90;;;;;;5046697;28;20043;-82
2022/05/20 05:49:51;;;;;;;6.18;3.30;;;21.80;99.90;;;;;;5046990;28;20033;-83
2022/05/20 05:52:16;;;;;;;8.63;3.63;;;21.80;99.90;;;;;;5038118;28;20025;-83
2022/05/20 05:54:42;;;;;;;6.75;2.92;;;21.90;99.90;;;;;;5037042;28;20045;-83
2022/05/20 05:57:08;;;;;;;6.68;2.97;;;22.00;99.90;;;;;;5038086;28;20033;-83
2022/05/20 05:59:34;;;;;;;5.40;3.22;;;22.10;99.90;;;;;;5047998;28;20017;-83
2022/05/20 06:02:01;;;;;;;6.00;2.80;;;22.10;99.90;;;;;;5048971;28;20123;-83
2022/05/20 06:04:27;;;;;;;5.70;3.13;;;22.10;99.90;;;;;;5047065;28;20024;-83
2022/05/20 06:06:53;;;;;;;8.80;3.35;;;22.20;99.90;;;;;;5047619;28;20041;-83
2022/05/20 06:09:19;;;;;;;5.15;3.28;;;22.20;99.90;;;;;;5044769;28;20481;-83
2022/05/20 06:11:45;;;;;;;8.13;3.45;;;22.20;99.90;;;;;;5057464;28;20504;-83
2022/05/20 06:14:11;;;;;;;7.65;3.47;;;22.30;99.90;;;;;;5050186;28;20029;-83
2022/05/20 06:16:38;;;;;;;5.57;2.97;;;22.30;99.90;;;;;;5048157;28;20032;-84
2022/05/20 06:19:04;;;;;;;12.18;3.55;;;22.40;99.90;;;;;;5045551;28;20036;-83
2022/05/20 06:21:30;;;;;;;6.97;3.20;;;22.40;99.90;;;;;;5043547;28;20045;-83
2022/05/20 06:23:56;;;;;;;6.20;3.05;;;22.40;99.90;;;;;;5045627;28;20026;-83
2022/05/20 06:26:21;;;;;;;7.18;3.35;;;22.40;99.90;;;;;;5049352;28;20497;-83
2022/05/20 06:28:47;;;;;;;8.20;3.22;;;22.50;99.90;;;;;;5060367;28;20056;-83
2022/05/20 06:31:13;;;;;;;7.00;3.15;;;22.60;99.90;;;;;;5037682;28;20014;-84
2022/05/20 06:33:39;;;;;;;7.97;3.38;;;22.70;99.90;;;;;;5036924;28;20437;-85
2022/05/20 06:41:34;;;;;;;7.32;3.38;;;22.70;99.90;;;;;;5047423;28;20040;-85
2022/05/20 06:44:00;;;;;;;3.63;2.75;;;22.80;99.90;;;;;;5048414;28;20037;-84
2022/05/20 06:46:25;;;;;;;6.13;2.78;;;22.80;99.90;;;;;;5061549;28;20024;-84
2022/05/20 06:48:54;;;;;;;5.22;2.78;;;22.80;99.90;;;;;;5047947;28;20124;-85
2022/05/20 06:51:31;;;;;;;6.07;2.97;;;22.90;99.90;;;;;;5048203;28;20497;-84
2022/05/20 06:53:59;;;;;;;7.53;3.08;;;22.90;99.90;;;;;;5055087;28;20417;-85
2022/05/20 06:56:28;;;;;;;4.85;3.35;;;23.00;99.90;;;;;;5048433;28;20053;-84
2022/05/20 06:58:55;;;;;;;6.15;3.00;;;23.00;99.90;;;;;;5046430;28;20057;-85
2022/05/20 07:01:20;;;;;;;11.15;3.08;;;23.10;99.90;;;;;;5046514;28;20538;-84
2022/05/20 07:03:46;;;;;;;6.88;2.80;;;23.20;99.90;;;;;;5048277;28;20108;-84
2022/05/20 07:06:14;;;;;;;5.93;3.42;;;23.20;99.90;;;;;;5044065;28;20029;-85
2022/05/20 07:08:40;;;;;;;5.78;2.90;;;23.20;99.90;;;;;;5048464;28;20048;-85
2022/05/20 07:11:06;;;;;;;5.22;2.88;;;23.30;99.90;;;;;;5033502;28;20021;-85
2022/05/20 07:13:32;;;;;;;9.10;3.28;;;23.40;99.90;;;;;;5035575;28;20032;-84
2022/05/20 07:15:59;;;;;;;6.13;2.63;;;23.50;99.90;;;;;;5046608;28;20029;-85
2022/05/20 07:18:29;;;;;;;4.07;2.90;;;23.50;99.90;;;;;;5046654;28;20052;-84
2022/05/20 07:20:55;;;;;;;4.80;2.75;;;23.50;99.90;;;;;;5054067;28;20115;-88
2022/05/20 07:23:24;;;;;;;5.00;2.90;;;23.70;99.90;;;;;;5036612;28;20111;-88
2022/05/20 07:25:51;;;;;;;5.57;2.70;;;23.70;99.90;;;;;;5048233;28;20052;-87
2022/05/20 07:28:17;;;;;;;8.13;3.17;;;23.80;99.90;;;;;;5055665;28;20037;-87
2022/05/20 07:30:42;;;;;;;7.20;2.60;;;23.90;99.90;;;;;;5048333;28;20063;-87
2022/05/20 07:33:08;;;;;;;10.00;3.20;;;23.90;99.90;;;;;;5041678;28;20060;-87
2022/05/20 07:35:36;;;;;;;4.22;2.70;;;23.90;99.90;;;;;;5043232;28;20063;-86
2022/05/20 07:38:02;;;;;;;4.75;2.80;;;24.00;99.90;;;;;;5058278;28;20020;-88
2022/05/20 07:40:28;;;;;;;5.95;2.88;;;24.10;99.90;;;;;;5037738;28;20084;-87
2022/05/20 07:42:54;;;;;;;4.20;2.50;;;24.10;99.90;;;;;;5054947;28;20029;-83
2022/05/20 07:45:20;;;;;;;6.05;2.83;;;24.40;99.90;;;;;;5049640;28;20079;-84
2022/05/20 07:47:46;;;;;;;4.93;2.85;;;24.30;99.90;;;;;;5056945;28;20512;-84
2022/05/20 07:50:15;;;;;;;8.50;2.90;;;24.30;99.90;;;;;;5038842;28;20040;-83
2022/05/20 07:55:45;;;;;;;5.63;3.00;;;24.40;99.90;;;;;;5036120;28;20071;-84
2022/05/20 07:58:15;;;;;;;8.20;3.00;;;24.40;99.90;;;;;;5045337;28;20037;-84
2022/05/20 08:00:41;;;;;;;7.00;3.10;;;24.50;99.90;;;;;;5048592;28;20029;-84
2022/05/20 08:03:10;;;;;;;7.85;2.95;;;24.50;99.90;;;;;;5051862;28;20120;-83
2022/05/20 08:05:36;;;;;;;6.13;3.05;;;24.80;99.90;;;;;;5046468;28;20075;-83
2022/05/20 08:08:06;;;;;;;4.43;2.97;;;24.70;99.90;;;;;;5048954;28;20056;-84
2022/05/20 08:10:34;;;;;;;6.20;3.20;;;24.80;99.90;;;;;;5064532;28;20035;-84
2022/05/20 08:13:00;;;;;;;6.35;2.72;;;24.90;99.90;;;;;;5049689;28;20053;-84
2022/05/20 08:15:26;;;;;;;5.22;3.17;;;25.10;99.90;;;;;;5045849;28;20213;-84
2022/05/20 08:17:52;;;;;;;5.00;2.78;;;25.10;99.90;;;;;;5056338;28;20509;-84
2022/05/20 08:20:25;;;;;;;3.75;2.63;;;25.10;99.90;;;;;;5053825;28;20024;-84
2022/05/20 08:22:53;;;;;;;6.53;2.83;;;25.00;99.90;;;;;;5037678;28;20056;-84
2022/05/20 08:25:20;;;;;;;6.30;2.88;;;25.20;99.90;;;;;;5046300;28;20025;-84
2022/05/20 08:27:46;;;;;;;6.38;3.10;;;25.20;99.90;;;;;;5056669;28;20103;-84
2022/05/20 08:30:21;;;;;;;5.78;2.97;;;25.10;99.90;;;;;;5055514;28;20489;-84
2022/05/20 08:32:47;;;;;;;3.97;2.88;;;25.30;99.90;;;;;;5039653;28;20021;-84
2022/05/20 08:35:13;;;;;;;7.55;3.05;;;25.30;99.90;;;;;;5048496;28;20056;-84
2022/05/20 08:37:44;;;;;;;7.00;2.80;;;25.30;99.90;;;;;;5050040;28;20036;-84
2022/05/20 08:40:13;;;;;;;5.07;3.00;;;25.40;99.90;;;;;;5055992;28;20116;-83
2022/05/20 08:42:39;;;;;;;6.85;3.10;;;25.60;99.90;;;;;;5047639;28;20114;-84
2022/05/20 08:45:07;;;;;;;5.50;3.50;;;25.60;99.90;;;;;;5039615;28;20100;-84
2022/05/20 08:47:43;;;;;;;4.25;3.22;;;25.70;99.90;;;;;;5043548;28;20032;-84
2022/05/20 08:50:30;;;;;;;3.72;3.00;;;25.70;99.90;;;;;;5051783;28;20021;-84
2022/05/20 08:52:57;;;;;;;4.25;3.30;;;25.70;99.90;;;;;;5058365;28;20401;-84
2022/05/20 08:55:23;;;;;;;5.80;3.20;;;25.70;99.90;;;;;;5049635;28;20485;-84
2022/05/20 08:58:01;;;;;;;6.47;3.15;;;25.60;99.90;;;;;;5051930;28;20036;-84
2022/05/20 09:00:28;;;;;;;5.82;2.80;;;25.60;99.90;;;;;;5053205;28;20396;-84
2022/05/20 09:02:54;;;;;;;7.18;3.40;;;25.50;99.90;;;;;;5050496;28;20025;-84
2022/05/20 09:05:31;;;;;;;5.30;2.95;;;25.50;99.90;;;;;;5062104;28;20117;-84
2022/05/20 09:08:05;;;;;;;5.93;2.90;;;25.50;99.90;;;;;;5051184;28;20107;-84
2022/05/20 09:10:32;;;;;;;5.18;2.85;;;25.70;99.90;;;;;;5038212;28;20034;-84
2022/05/20 09:15:43;;;;;;;5.53;3.00;;;25.70;99.90;;;;;;5038987;28;20037;-84
2022/05/20 09:16:16;;;;;;;7.03;3.30;;;25.70;99.90;;;;;;5045102;28;20520;-84
2022/05/20 09:18:45;;;;;;;6.97;2.92;;;26.20;99.90;;;;;;5055473;28;20112;-84
2022/05/20 09:21:27;;;;;;;11.38;2.97;;;26.00;99.90;;;;;;5040059;28;20073;-84
2022/05/20 09:24:00;;;;;;;6.30;2.90;;;26.00;99.90;;;;;;5044939;28;20025;-84
2022/05/20 09:26:36;;;;;;;3.22;2.92;;;26.00;99.90;;;;;;5049528;28;20505;-83
2022/05/20 09:29:28;;;;;;;5.43;2.75;;;26.10;99.90;;;;;;5062713;28;20037;-84
2022/05/20 09:32:03;;;;;;;7.45;2.70;;;26.30;99.90;;;;;;5050882;28;20550;-84
2022/05/20 09:34:39;;;;;;;3.58;2.63;;;26.40;99.90;;;;;;5037861;28;20558;-84
2022/05/20 09:37:14;;;;;;;5.70;2.70;;;26.30;99.90;;;;;;5055494;28;20089;-84
2022/05/20 09:39:42;;;;;;;9.13;3.10;;;26.40;99.90;;;;;;5055121;28;20575;-83
2022/05/20 09:42:15;;;;;;;7.18;2.90;;;26.40;99.90;;;;;;5054485;28;20060;-84
2022/05/20 09:44:47;;;;;;;17.90;3.75;;;26.50;99.90;;;;;;5047268;28;20390;-84
2022/05/20 09:47:37;;;;;;;6.53;3.25;;;26.50;99.90;;;;;;5054678;28;20036;-84
2022/05/20 09:50:22;;;;;;;4.72;2.88;;;26.70;99.90;;;;;;5061388;28;20488;-85
2022/05/20 09:52:54;;;;;;;3.95;2.72;;;26.70;99.90;;;;;;5062209;28;20078;-87
2022/05/20 09:55:31;;;;;;;8.45;2.47;;;26.50;99.90;;;;;;5047358;28;20033;-88
2022/05/20 09:58:15;;;;;;;4.78;2.70;;;26.70;99.90;;;;;;5052682;28;20074;-85
2022/05/20 10:00:52;;;;;;;3.95;2.83;;;26.90;99.90;;;;;;5052013;28;20030;-85
2022/05/20 10:03:38;;;;;;;6.63;2.92;;;26.90;99.90;;;;;;5052678;28;20041;-85
2022/05/20 10:06:30;;;;;;;6.32;2.42;;;27.10;99.90;;;;;;5049317;28;20032;-86
2022/05/20 10:08:56;;;;;;;7.55;2.72;;;27.20;99.90;;;;;;5037621;28;20497;-86
2022/05/20 10:11:31;;;;;;;7.85;3.10;;;27.40;99.90;;;;;;5047882;28;20124;-86
2022/05/20 10:14:05;;;;;;;5.85;2.80;;;27.50;99.90;;;;;;5042380;28;20024;-86
2022/05/20 10:16:41;;;;;;;9.10;2.97;;;27.80;99.90;;;;;;5047473;28;20041;-86
2022/05/20 10:19:19;;;;;;;7.68;3.13;;;27.80;99.90;;;;;;5034707;28;20540;-86
2022/05/20 10:22:06;;;;;;;5.57;3.00;;;28.00;99.90;;;;;;5044387;28;20135;-86
2022/05/20 10:24:56;;;;;;;4.88;2.70;;;28.00;99.90;;;;;;5045352;28;20119;-86
2022/05/20 10:27:45;;;;;;;5.32;2.65;;;28.00;99.90;;;;;;5042727;28;20034;-89
2022/05/20 10:33:12;;;;;;;9.13;3.03;;;28.10;99.90;;;;;;5047617;28;20036;-90
2022/05/20 10:35:56;;;;;;;5.68;2.80;;;28.20;99.90;;;;;;5045470;28;20107;-87
2022/05/20 10:38:33;;;;;;;6.82;2.70;;;28.10;99.90;;;;;;5033584;28;20029;-88
2022/05/20 10:41:01;;;;;;;4.28;2.47;;;27.90;99.90;;;;;;5052273;28;20047;-88
2022/05/20 10:50:07;;;;;;;6.05;2.97;;;28.60;99.90;;;;;;5048242;28;20477;-87
2022/05/20 10:52:33;;;;;;;7.43;2.92;;;28.90;99.90;;;;;;5035489;28;20025;-87
2022/05/20 10:55:09;;;;;;;5.00;3.10;;;29.00;99.90;;;;;;5045105;28;20036;-85
2022/05/20 10:57:46;;;;;;;5.60;2.58;;;29.20;99.90;;;;;;5047435;28;20021;-86
2022/05/20 11:00:18;;;;;;;5.00;2.50;;;28.80;99.90;;;;;;5053452;28;20021;-87
2022/05/20 11:02:46;;;;;;;6.90;2.80;;;29.00;99.90;;;;;;5052524;28;20041;-86
2022/05/20 11:05:38;;;;;;;9.80;2.90;;;28.80;99.90;;;;;;5033386;28;20025;-87
2022/05/20 11:08:29;;;;;;;6.07;2.78;;;28.70;99.90;;;;;;5057695;28;20034;-86
2022/05/20 11:11:15;;;;;;;8.07;2.60;;;28.40;99.90;;;;;;5032473;28;20111;-84
2022/05/20 11:14:00;;;;;;;8.88;3.08;;;28.60;99.90;;;;;;5045994;28;20064;-87
2022/05/20 11:17:05;;;;;;;4.20;2.55;;;28.90;99.90;;;;;;5060612;28;20059;-86
2022/05/20 11:19:49;;;;;;;5.95;3.47;;;28.90;99.90;;;;;;5035875;28;20104;-87
2022/05/20 11:23:00;;;;;;;5.82;3.15;;;29.30;99.90;;;;;;5045040;28;20060;-88
2022/05/20 11:25:34;;;;;;;4.35;2.58;;;29.40;99.90;;;;;;5077000;28;20349;-85
2022/05/20 11:28:03;;;;;;;6.93;2.70;;;29.70;99.90;;;;;;5040617;28;20025;-85
2022/05/20 11:30:56;;;;;;;8.32;3.22;;;29.40;99.90;;;;;;5074264;28;20035;-85
2022/05/20 11:33:22;;;;;;;7.85;3.28;;;29.50;99.90;;;;;;5051143;28;20028;-85
2022/05/20 11:36:07;;;;;;;6.35;3.20;;;29.30;99.90;;;;;;5049774;28;20053;-85
2022/05/20 11:38:51;;;;;;;4.75;2.75;;;29.40;99.90;;;;;;5047826;28;20398;-85
2022/05/20 11:41:28;;;;;;;4.78;2.80;;;29.40;99.90;;;;;;5040380;28;20389;-85
2022/05/20 11:44:21;;;;;;;8.38;3.03;;;29.80;99.90;;;;;;5037619;28;20059;-85
2022/05/20 11:47:18;;;;;;;5.78;2.78;;;30.10;99.90;;;;;;5064847;28;20515;-85
2022/05/20 11:49:47;;;;;;;9.77;3.17;;;29.80;99.90;;;;;;5048600;28;20113;-86
2022/05/20 11:52:31;;;;;;;9.38;3.60;;;30.10;99.90;;;;;;5039404;28;20564;-84
2022/05/20 11:55:18;;;;;;;7.15;3.10;;;30.20;99.90;;;;;;5040334;28;20156;-84
2022/05/20 11:57:48;;;;;;;8.82;3.03;;;30.20;99.90;;;;;;5044723;28;20082;-85
2022/05/20 12:00:19;;;;;;;6.40;3.25;;;30.40;99.90;;;;;;5047451;28;20474;-85
2022/05/20 12:03:09;;;;;;;9.07;3.05;;;30.20;99.90;;;;;;5036553;28;20124;-85
2022/05/20 12:05:47;;;;;;;8.30;2.95;;;30.40;99.90;;;;;;5049928;28;20036;-85
2022/05/20 12:08:40;;;;;;;10.82;3.72;;;30.80;99.90;;;;;;5037309;28;20585;-85
2022/05/20 12:11:26;;;;;;;5.80;2.75;;;30.50;99.90;;;;;;5032769;28;20033;-85
2022/05/20 12:13:58;;;;;;;9.55;2.97;;;30.90;99.90;;;;;;5058617;28;20090;-84
2022/05/20 12:16:24;;;;;;;4.70;3.13;;;30.90;99.90;;;;;;5051498;28;20136;-85
2022/05/20 12:24:42;;;;;;;5.47;3.17;;;31.00;99.90;;;;;;5049786;28;20082;-84
2022/05/20 12:27:23;;;;;;;6.20;2.90;;;31.00;99.90;;;;;;5043995;28;20025;-85
2022/05/20 12:30:03;;;;;;;4.35;2.88;;;31.20;99.90;;;;;;5047366;28;20032;-85
2022/05/20 12:32:42;;;;;;;7.20;3.22;;;30.60;99.90;;;;;;5055533;28;20029;-84
2022/05/20 12:35:16;;;;;;;9.13;3.03;;;30.60;99.90;;;;;;5050181;28;20099;-85
2022/05/20 12:37:42;;;;;;;11.73;3.40;;;30.80;99.90;;;;;;5050785;28;20625;-85
2022/05/20 12:40:26;;;;;;;10.05;3.45;;;30.80;99.90;;;;;;5039580;28;20112;-85
2022/05/20 12:43:10;;;;;;;13.65;3.45;;;31.00;99.90;;;;;;5036513;28;20041;-89
2022/05/20 12:45:50;;;;;;;8.77;3.25;;;30.70;99.90;;;;;;5044366;28;20441;-88
2022/05/20 12:48:18;;;;;;;10.10;3.33;;;30.40;99.90;;;;;;5048009;28;20021;-89
2022/05/20 12:50:56;;;;;;;8.55;3.35;;;30.10;99.90;;;;;;5045822;28;20052;-85
2022/05/20 12:53:28;;;;;;;9.73;3.28;;;30.20;99.90;;;;;;5061393;28;20028;-85
2022/05/20 12:55:55;;;;;;;10.80;3.47;;;30.50;99.90;;;;;;5048425;28;20154;-85
2022/05/20 12:58:25;;;;;;;13.15;3.20;;;30.10;99.90;;;;;;5089897;28;20081;-85
2022/05/20 13:00:53;;;;;;;8.68;3.20;;;30.40;99.90;;;;;;5051318;28;20387;-85
2022/05/20 13:03:28;;;;;;;7.00;2.92;;;30.60;99.90;;;;;;5051934;28;20106;-85
2022/05/20 13:05:56;;;;;;;6.03;3.30;;;30.80;99.90;;;;;;5038442;28;20040;-85
2022/05/20 13:08:25;;;;;;;8.00;3.63;;;30.50;99.90;;;;;;5035602;28;20107;-85
2022/05/20 13:10:51;;;;;;;8.25;3.58;;;31.30;99.90;;;;;;5049407;28;20029;-85
2022/05/20 13:13:24;;;;;;;9.38;3.60;;;31.20;99.90;;;;;;5047596;28;20033;-85
2022/05/20 13:15:57;;;;;;;10.50;3.40;;;31.50;99.90;;;;;;5047591;28;20052;-85
2022/05/20 13:18:28;;;;;;;22.30;4.28;;;31.50;99.90;;;;;;5052167;28;20025;-84
2022/05/20 13:20:58;;;;;;;6.75;3.50;;;31.20;99.90;;;;;;5046436;28;20508;-85
2022/05/20 13:23:33;;;;;;;7.28;3.40;;;30.60;99.90;;;;;;5049774;28;20044;-85
2022/05/20 13:25:59;;;;;;;8.60;3.40;;;30.80;99.90;;;;;;5049595;28;20033;-85
2022/05/20 13:28:36;;;;;;;7.70;3.63;;;30.70;99.90;;;;;;5037393;28;20363;-84
2022/05/20 13:31:08;;;;;;;7.95;3.25;;;30.90;99.90;;;;;;5046495;28;20048;-85
2022/05/20 13:33:36;;;;;;;8.20;3.25;;;31.10;99.90;;;;;;5045994;28;20036;-85
2022/05/20 13:36:06;;;;;;;10.90;3.63;;;30.80;99.90;;;;;;5046244;28;20059;-85
2022/05/20 13:38:39;;;;;;;10.85;3.65;;;30.40;99.90;;;;;;5049141;28;20044;-85
2022/05/20 13:41:07;;;;;;;11.02;3.20;;;30.20;99.90;;;;;;5034242;28;20112;-85
2022/05/20 13:43:36;;;;;;;8.80;3.50;;;30.50;99.90;;;;;;5037266;28;20040;-86
2022/05/20 13:49:13;;;;;;;6.15;3.10;;;31.10;99.90;;;;;;5046266;28;20084;-85
2022/05/20 13:51:44;;;;;;;12.43;3.55;;;30.50;99.90;;;;;;5045734;28;20035;-85